Time;durP1;ratioP1;P1;durP2;ratioP2;P2;SDS_P1;SDS_P2;PMS_P1;PMS_P2;Temp;Humidity;BMP_temperature;BMP_pressure;BME280_temperature;BME280_humidity;BME280_pressure;Samples;Min_cycle;Max_cycle;Signal;HPM_P1;HPM_P2
2020/12/26 00:03:10;;;;;;;11.28;5.60;;;;;;;1.08;100.00;100220.44;10143337;86;21158;-88
2020/12/26 00:18:15;;;;;;;8.48;5.15;;;;;;;0.62;100.00;100220.92;10185842;85;21135;-92
2020/12/26 00:33:20;;;;;;;11.05;5.53;;;;;;;0.46;100.00;100237.59;10133106;86;21569;-94
2020/12/26 00:48:27;;;;;;;10.72;5.67;;;;;;;0.46;100.00;100237.59;10174303;86;21163;-94
2020/12/26 01:03:35;;;;;;;10.15;4.67;;;;;;;0.31;100.00;100235.71;10189388;86;21037;-92
2020/12/26 01:18:45;;;;;;;7.80;3.98;;;;;;;0.49;100.00;100234.03;10137084;85;21167;-93
2020/12/26 01:33:51;;;;;;;6.90;3.52;;;;;;;0.40;100.00;100236.58;10138393;86;21190;-90
2020/12/26 01:49:01;;;;;;;5.72;4.25;;;;;;;0.49;100.00;100223.23;10179631;86;21484;-89
2020/12/26 02:04:06;;;;;;;13.38;8.30;;;;;;;0.27;100.00;100251.78;10206662;86;21495;-89
2020/12/26 02:19:11;;;;;;;8.97;5.47;;;;;;;0.59;100.00;100255.08;10209045;86;21208;-89
2020/12/26 02:34:16;;;;;;;9.78;4.83;;;;;;;0.58;100.00;100268.45;10205818;87;21053;-89
2020/12/26 02:49:20;;;;;;;8.45;4.47;;;;;;;0.62;100.00;100247.17;10227315;86;21053;-90
2020/12/26 03:04:26;;;;;;;8.30;4.47;;;;;;;0.38;100.00;100262.89;10308471;86;21077;-92
2020/12/26 03:19:31;;;;;;;5.80;3.63;;;;;;;0.62;100.00;100266.11;10206404;86;21092;-92
2020/12/26 03:34:35;;;;;;;7.20;3.58;;;;;;;0.78;100.00;100275.25;10206342;87;21053;-92
2020/12/26 03:49:41;;;;;;;5.00;2.65;;;;;;;0.79;100.00;100282.09;10206337;87;21287;-92
2020/12/26 04:38:35;;;;;;;3.02;2.08;;;;;;;1.03;100.00;100301.22;9572568;90;21113;-91
2020/12/26 04:53:45;;;;;;;2.40;2.10;;;;;;;1.00;100.00;100303.92;10109922;86;21065;-92
2020/12/26 05:08:52;;;;;;;3.27;2.35;;;;;;;0.84;100.00;100319.31;10294595;86;21194;-89
2020/12/26 05:24:06;;;;;;;2.95;2.40;;;;;;;1.08;100.00;100329.41;10243682;86;21228;-92
2020/12/26 05:39:12;;;;;;;8.13;4.50;;;;;;;1.05;100.00;100326.97;10240807;86;21041;-90
2020/12/26 05:54:21;;;;;;;4.83;4.37;;;;;;;1.02;100.00;100331.83;10271348;86;21021;-91
2020/12/26 06:09:28;;;;;;;7.05;4.30;;;;;;;1.12;100.00;100355.47;9738940;90;21065;-83
2020/12/26 06:24:33;;;;;;;5.10;3.80;;;;;;;0.96;100.00;100358.80;10201947;84;21077;-82
2020/12/26 06:39:38;;;;;;;12.13;5.90;;;;;;;0.98;100.00;100389.27;10369430;84;21061;-84
2020/12/26 06:55:08;;;;;;;8.43;4.97;;;;;;;0.84;100.00;100407.14;9973424;88;21700;-85
2020/12/26 07:10:37;;;;;;;27.20;13.50;;;;;;;1.04;100.00;100413.97;10212608;85;21108;-84
2020/12/26 07:25:45;;;;;;;95.20;28.80;;;;;;;0.73;100.00;100426.17;10342169;84;21028;-84
2020/12/26 07:40:53;;;;;;;45.78;16.55;;;;;;;0.85;100.00;100439.81;10262895;85;21094;-85
2020/12/26 07:56:08;;;;;;;49.88;16.75;;;;;;;0.96;100.00;100444.06;10350807;85;21131;-84
2020/12/26 08:11:25;;;;;;;198.97;64.53;;;;;;;0.86;100.00;100460.02;10346970;84;21579;-86
2020/12/26 08:26:32;;;;;;;302.55;106.87;;;;;;;0.98;100.00;100482.27;10307861;84;21484;-84
2020/12/26 08:41:42;;;;;;;166.77;68.60;;;;;;;1.24;100.00;100513.00;10263258;86;21439;-84
2020/12/26 08:56:46;;;;;;;56.13;19.12;;;;;;;1.11;100.00;100525.64;9558177;91;21175;-84
2020/12/26 10:02:47;;;;;;;52.93;20.82;;;;;;;2.66;100.00;100571.77;9352161;93;21296;-87
2020/12/26 10:17:54;;;;;;;23.75;11.03;;;;;;;2.97;100.00;100566.33;9606665;90;21180;-87
2020/12/26 10:33:15;;;;;;;95.90;29.32;;;;;;;3.41;100.00;100587.42;10251092;84;21057;-87
2020/12/26 10:48:21;;;;;;;27.07;10.10;;;;;;;3.51;100.00;100574.34;10266914;84;21053;-87
2020/12/26 11:03:48;;;;;;;51.77;18.37;;;;;;;3.22;100.00;100564.20;10259666;85;21604;-91
2020/12/26 11:19:13;;;;;;;31.82;14.85;;;;;;;3.17;100.00;100572.23;9822234;89;21182;-90
2020/12/26 11:34:17;;;;;;;19.23;10.53;;;;;;;3.27;100.00;100574.73;9777821;89;21187;-89
2020/12/26 11:49:23;;;;;;;42.83;17.32;;;;;;;3.02;100.00;100577.73;9849851;89;21262;-90
2020/12/26 12:04:27;;;;;;;45.52;17.95;;;;;;;2.99;100.00;100576.61;9858545;89;21151;-90
2020/12/26 12:19:32;;;;;;;47.62;20.55;;;;;;;2.53;100.00;100464.98;9857757;87;21207;-90
2020/12/26 12:34:37;;;;;;;49.18;19.07;;;;;;;3.27;100.00;100586.40;9854217;89;21076;-89
2020/12/26 12:49:41;;;;;;;22.32;9.53;;;;;;;2.41;100.00;100588.99;10056053;89;21107;-89
2020/12/26 13:04:45;;;;;;;29.23;10.53;;;;;;;2.85;100.00;100617.95;10056293;88;21175;-89
2020/12/26 13:19:49;;;;;;;233.07;101.47;;;;;;;2.47;100.00;100614.59;10060039;86;21071;-90
2020/12/26 13:34:54;;;;;;;25.20;16.95;;;;;;;2.47;100.00;100614.59;10107023;88;21167;-89
2020/12/26 13:49:59;;;;;;;114.12;38.88;;;;;;;2.36;100.00;100618.62;10107227;88;21143;-90
2020/12/26 14:05:05;;;;;;;37.73;15.53;;;;;;;3.40;100.00;100632.42;10107477;88;21068;-89
2020/12/26 14:20:10;;;;;;;35.33;14.30;;;;;;;2.56;100.00;100641.81;10112067;86;21179;-89
2020/12/26 14:35:15;;;;;;;81.50;33.15;;;;;;;2.16;100.00;100643.27;10169003;88;21063;-89
2020/12/26 14:50:19;;;;;;;97.35;39.88;;;;;;;1.91;100.00;100666.02;10168775;88;21063;-89
2020/12/26 15:05:24;;;;;;;64.55;27.42;;;;;;;1.61;100.00;100666.48;9975065;88;21111;-89
2020/12/26 15:20:28;;;;;;;67.60;27.48;;;;;;;1.42;100.00;100680.22;9965697;88;21163;-89
2020/12/26 15:35:35;;;;;;;113.45;47.88;;;;;;;1.26;100.00;100680.52;9854061;89;21132;-88
2020/12/26 15:50:38;;;;;;;44.90;19.40;;;;;;;1.06;100.00;100678.78;10056124;88;21210;-89
2020/12/26 16:05:43;;;;;;;61.58;25.35;;;;;;;0.86;100.00;100678.30;10055889;88;21041;-89
2020/12/26 16:20:49;;;;;;;70.30;25.43;;;;;;;0.62;100.00;100671.50;10057605;86;21183;-89
2020/12/26 16:35:54;;;;;;;42.80;19.23;;;;;;;0.53;100.00;100667.14;10079256;88;21080;-89
2020/12/26 16:51:02;;;;;;;71.72;26.20;;;;;;;0.60;100.00;100651.34;10079072;88;21217;-89
2020/12/26 17:06:07;;;;;;;101.93;36.77;;;;;;;0.64;100.00;100646.44;10079172;88;21072;-89
2020/12/26 17:21:16;;;;;;;62.40;22.90;;;;;;;0.56;100.00;100628.31;10079152;86;21077;-89
2020/12/26 17:36:22;;;;;;;120.90;65.97;;;;;;;0.49;100.00;100637.58;9596271;88;21099;-89
2020/12/26 17:51:26;;;;;;;35.30;17.30;;;;;;;0.44;100.00;100645.13;9786993;89;21094;-88
2020/12/26 18:06:31;;;;;;;28.87;13.60;;;;;;;0.37;100.00;100659.17;10078851;88;21076;-89
2020/12/26 18:21:35;;;;;;;38.30;15.48;;;;;;;0.24;100.00;100655.80;10081849;86;21068;-89
2020/12/26 18:36:46;;;;;;;30.60;15.00;;;;;;;0.26;100.00;100655.27;10113096;88;21535;-89
2020/12/26 18:51:51;;;;;;;26.65;11.22;;;;;;;0.23;100.00;100655.86;10112570;88;21076;-88
2020/12/26 19:07:55;;;;;;;98.92;50.30;;;;;;;0.25;100.00;100652.75;10121735;86;21487;-87
2020/12/26 19:23:44;;;;;;;36.05;17.05;;;;;;;0.54;100.00;100664.95;10328059;85;22209;-82
2020/12/26 19:38:49;;;;;;;29.75;14.45;;;;;;;0.13;100.00;100655.36;10304078;86;21503;-86
2020/12/26 19:53:54;;;;;;;51.18;27.75;;;;;;;0.08;100.00;100643.08;10329593;86;21191;-85
2020/12/26 20:08:58;;;;;;;43.20;16.25;;;;;;;-0.02;100.00;100649.06;10275966;86;21087;-85
2020/12/26 20:24:03;;;;;;;35.75;15.83;;;;;;;-0.11;100.00;100642.95;10269494;84;21486;-86
2020/12/26 20:39:08;;;;;;;34.50;14.37;;;;;;;-0.28;100.00;100628.95;10339040;85;21036;-87
2020/12/26 20:54:13;;;;;;;36.08;14.90;;;;;;;-0.20;100.00;100623.08;10497639;84;21139;-84
2020/12/26 21:09:17;;;;;;;25.23;12.63;;;;;;;-0.29;100.00;100605.80;10525780;84;21652;-86
2020/12/26 21:24:22;;;;;;;30.80;13.32;;;;;;;-0.29;100.00;100598.06;10526616;83;21463;-87
2020/12/26 21:39:27;;;;;;;27.23;11.87;;;;;;;-0.23;100.00;100605.58;10565325;83;21477;-84
2020/12/26 21:54:31;;;;;;;22.65;10.80;;;;;;;-0.42;100.00;100595.09;10513137;83;21025;-88
2020/12/26 22:09:36;;;;;;;24.80;12.23;;;;;;;-0.26;100.00;100569.61;10541763;83;21044;-83
2020/12/26 22:24:40;;;;;;;23.87;11.55;;;;;;;-0.37;100.00;100524.87;10532800;83;21490;-85
2020/12/26 22:39:45;;;;;;;28.67;13.30;;;;;;;-0.34;100.00;100506.73;10510722;83;21169;-87
2020/12/26 22:54:49;;;;;;;28.20;14.00;;;;;;;-0.47;100.00;100506.36;10512605;84;21080;-87
2020/12/26 23:09:54;;;;;;;27.50;11.78;;;;;;;-0.43;100.00;100492.45;10487054;83;21179;-86
2020/12/26 23:25:00;;;;;;;26.42;12.23;;;;;;;-0.38;100.00;100503.42;10480717;83;21779;-86
2020/12/26 23:40:04;;;;;;;;;;;;;;;-0.17;100.00;100471.25;10529469;83;21164;-91
2020/12/26 23:55:10;;;;;;;28.87;11.97;;;;;;;-0.26;100.00;100449.70;10606390;83;20160;-90
